Time;durP1;ratioP1;P1;durP2;ratioP2;P2;SDS_P1;SDS_P2;PMS_P1;PMS_P2;Temp;Humidity;BMP_temperature;BMP_pressure;BME280_temperature;BME280_humidity;BME280_pressure;Samples;Min_cycle;Max_cycle;Signal;HPM_P1;HPM_P2
2022/02/15 17:46:48;;;;;;;7.78;7.18;;;;;;;;;;5074497;27;20734;-58
2022/02/15 17:49:13;;;;;;;6.85;6.25;;;;;;;;;;5082191;28;24423;-58
2022/02/15 17:51:39;;;;;;;6.53;5.93;;;;;;;;;;5072671;28;24435;-58
2022/02/15 17:54:04;;;;;;;6.30;5.80;;;;;;;;;;5061303;28;24419;-57
2022/02/15 17:56:31;;;;;;;6.55;5.95;;;;;;;;;;5060433;28;24946;-58
2022/02/15 17:58:57;;;;;;;6.50;5.90;;;;;;;;;;5062961;28;25137;-58
2022/02/15 18:01:22;;;;;;;6.97;6.28;;;;;;;;;;5063617;28;24411;-58
2022/02/15 18:03:48;;;;;;;6.80;6.20;;;;;;;;;;5063031;28;24537;-58
2022/02/15 18:06:13;;;;;;;7.20;6.60;;;;;;;;;;5060203;28;24449;-58
2022/02/15 18:08:40;;;;;;;7.33;6.73;;;;;;;;;;5063695;28;24442;-58
2022/02/15 18:11:05;;;;;;;7.43;6.72;;;;;;;;;;5060588;28;24820;-59
2022/02/15 18:13:30;;;;;;;6.70;6.10;;;;;;;;;;5063778;28;24405;-58
2022/02/15 18:15:55;;;;;;;6.97;6.38;;;;;;;;;;5057607;28;24419;-58
2022/02/15 18:18:20;;;;;;;6.80;6.20;;;;;;;;;;5061975;28;25009;-58
2022/02/15 18:20:46;;;;;;;6.63;6.03;;;;;;;;;;5062758;28;24422;-57
2022/02/15 18:23:13;;;;;;;6.20;5.70;;;;;;;;;;5061541;28;24396;-57
2022/02/15 18:25:38;;;;;;;5.53;5.03;;;;;;;;;;5050087;28;24523;-58
2022/02/15 18:28:03;;;;;;;6.20;5.60;;;;;;;;;;5061625;28;24515;-58
2022/02/15 18:30:28;;;;;;;5.80;5.40;;;;;;;;;;5048204;28;24499;-59
2022/02/15 18:32:53;;;;;;;6.43;5.83;;;;;;;;;;5041593;28;24976;-58
2022/02/15 18:35:18;;;;;;;6.50;5.90;;;;;;;;;;5056550;28;24434;-57
2022/02/15 18:37:44;;;;;;;6.80;6.10;;;;;;;;;;5062346;28;25041;-59
2022/02/15 18:40:10;;;;;;;6.53;5.83;;;;;;;;;;5063136;28;24403;-58
2022/02/15 18:42:36;;;;;;;6.90;6.20;;;;;;;;;;5062957;28;24387;-58
2022/02/15 18:45:02;;;;;;;6.93;6.22;;;;;;;;;;5061109;28;24450;-58
2022/02/15 18:47:28;;;;;;;6.53;5.93;;;;;;;;;;5080451;28;24418;-59
2022/02/15 18:49:53;;;;;;;5.00;4.60;;;;;;;;;;5083267;28;24417;-58
2022/02/15 18:52:19;;;;;;;4.35;3.95;;;;;;;;;;5082469;28;24410;-59
2022/02/15 18:54:45;;;;;;;4.60;4.20;;;;;;;;;;5082887;28;24986;-57
2022/02/15 18:57:11;;;;;;;4.70;4.30;;;;;;;;;;5074879;28;24410;-58
2022/02/15 18:59:36;;;;;;;4.77;4.37;;;;;;;;;;5069729;28;24495;-58
2022/02/15 19:02:01;;;;;;;5.10;4.60;;;;;;;;;;5069056;28;24402;-59
2022/02/15 19:04:26;;;;;;;4.17;3.80;;;;;;;;;;5069468;28;24478;-59
2022/02/15 19:06:51;;;;;;;4.13;3.83;;;;;;;;;;5069311;28;24757;-58
2022/02/15 19:09:17;;;;;;;4.20;3.90;;;;;;;;;;5068931;28;24454;-57
2022/02/15 19:11:42;;;;;;;4.30;4.00;;;;;;;;;;5069003;28;24399;-58
2022/02/15 19:14:07;;;;;;;4.00;3.70;;;;;;;;;;5069129;28;24387;-57
2022/02/15 19:16:32;;;;;;;3.90;3.60;;;;;;;;;;5069438;28;24399;-57
2022/02/15 19:18:57;;;;;;;3.30;3.10;;;;;;;;;;5068744;28;25281;-59
2022/02/15 19:21:22;;;;;;;4.30;3.90;;;;;;;;;;5068771;28;24383;-56
2022/02/15 19:23:48;;;;;;;3.92;3.63;;;;;;;;;;5068787;28;24430;-57
2022/02/15 19:26:14;;;;;;;4.10;3.80;;;;;;;;;;5069434;28;24812;-57
2022/02/15 19:28:39;;;;;;;4.00;3.70;;;;;;;;;;5068805;28;24768;-59
2022/02/15 19:31:05;;;;;;;3.47;3.20;;;;;;;;;;5068667;28;24814;-58
2022/02/15 19:33:33;;;;;;;3.40;3.10;;;;;;;;;;5067858;28;24395;-57
2022/02/15 19:35:58;;;;;;;3.70;3.40;;;;;;;;;;5067992;28;24414;-58
2022/02/15 19:38:24;;;;;;;3.50;3.20;;;;;;;;;;5068550;28;24410;-58
2022/02/15 19:40:49;;;;;;;4.30;3.90;;;;;;;;;;5068748;28;24398;-58
2022/02/15 19:43:17;;;;;;;3.77;3.47;;;;;;;;;;5068662;28;24399;-58
2022/02/15 19:45:43;;;;;;;3.65;3.35;;;;;;;;;;5068003;28;24534;-57
2022/02/15 19:48:10;;;;;;;3.40;3.15;;;;;;;;;;5068189;28;25264;-58
2022/02/15 19:50:35;;;;;;;3.30;3.00;;;;;;;;;;5066020;28;24505;-59
2022/02/15 19:53:01;;;;;;;3.40;3.10;;;;;;;;;;5057351;28;24411;-58
2022/02/15 19:55:26;;;;;;;2.93;2.73;;;;;;;;;;5067016;28;24991;-58
2022/02/15 19:57:51;;;;;;;3.17;2.97;;;;;;;;;;5067498;28;24446;-58
2022/02/15 20:00:16;;;;;;;3.50;3.20;;;;;;;;;;5065254;28;24414;-58
2022/02/15 20:02:41;;;;;;;3.83;3.53;;;;;;;;;;5071627;28;24452;-59
2022/02/15 20:05:07;;;;;;;3.80;3.17;;;;;;;;;;5068531;28;24465;-56
2022/02/15 20:07:32;;;;;;;3.17;2.97;;;;;;;;;;5061267;28;24427;-57
2022/02/15 20:09:57;;;;;;;2.93;2.70;;;;;;;;;;5055979;28;25443;-58
2022/02/15 20:12:22;;;;;;;2.80;2.60;;;;;;;;;;5062343;28;24425;-58
2022/02/15 20:14:47;;;;;;;4.37;2.63;;;;;;;;;;5062067;28;24770;-58
2022/02/15 20:17:13;;;;;;;2.80;2.60;;;;;;;;;;5064333;28;24803;-58
2022/02/15 20:19:38;;;;;;;3.40;3.10;;;;;;;;;;5062916;28;24856;-57
2022/02/15 20:22:05;;;;;;;4.20;3.80;;;;;;;;;;5064325;28;24449;-58
2022/02/15 20:24:30;;;;;;;3.40;3.10;;;;;;;;;;5059791;28;24476;-59
2022/02/15 20:26:55;;;;;;;2.90;2.70;;;;;;;;;;5063686;28;24500;-59
2022/02/15 20:29:21;;;;;;;3.08;2.88;;;;;;;;;;5064308;28;24432;-57
2022/02/15 20:31:46;;;;;;;3.10;2.90;;;;;;;;;;5064316;28;24492;-57
2022/02/15 20:34:11;;;;;;;3.90;3.27;;;;;;;;;;5062092;28;24418;-58
2022/02/15 20:36:37;;;;;;;3.10;2.90;;;;;;;;;;5062065;28;24422;-58
2022/02/15 20:39:02;;;;;;;3.15;2.95;;;;;;;;;;5058997;28;24439;-58
2022/02/15 20:41:27;;;;;;;3.27;2.97;;;;;;;;;;5059414;28;24481;-59
2022/02/15 20:43:53;;;;;;;3.30;3.00;;;;;;;;;;5059891;28;24585;-58
2022/02/15 20:46:18;;;;;;;3.42;3.10;;;;;;;;;;5059384;28;24550;-60
2022/02/15 20:48:43;;;;;;;3.50;3.30;;;;;;;;;;5063137;28;24422;-57
2022/02/15 20:51:09;;;;;;;3.70;3.40;;;;;;;;;;5062178;28;24445;-57
2022/02/15 20:53:35;;;;;;;3.20;2.90;;;;;;;;;;5063949;28;24442;-59
2022/02/15 20:56:00;;;;;;;3.00;2.80;;;;;;;;;;5062670;28;24830;-58
2022/02/15 20:58:26;;;;;;;4.68;4.28;;;;;;;;;;5062899;28;24797;-60
2022/02/15 21:00:53;;;;;;;4.70;4.30;;;;;;;;;;5058064;28;24797;-56
2022/02/15 21:03:18;;;;;;;3.70;3.40;;;;;;;;;;5060970;28;25285;-57
2022/02/15 21:05:43;;;;;;;3.80;3.50;;;;;;;;;;5057741;28;24457;-59
2022/02/15 21:08:09;;;;;;;3.57;3.27;;;;;;;;;;5060880;28;24430;-58
2022/02/15 21:10:34;;;;;;;3.50;3.30;;;;;;;;;;5066092;28;24414;-58
2022/02/15 21:13:00;;;;;;;3.43;3.10;;;;;;;;;;5064781;28;25016;-58
2022/02/15 21:15:25;;;;;;;3.90;3.60;;;;;;;;;;5066491;28;24426;-57
2022/02/15 21:17:50;;;;;;;3.70;3.40;;;;;;;;;;5064615;28;24572;-58
2022/02/15 21:20:15;;;;;;;4.00;3.70;;;;;;;;;;5051948;28;24540;-58
2022/02/15 21:22:41;;;;;;;4.73;4.20;;;;;;;;;;5066081;28;24397;-58
2022/02/15 21:25:06;;;;;;;4.10;3.70;;;;;;;;;;5065160;28;24441;-58
2022/02/15 21:27:34;;;;;;;4.73;4.33;;;;;;;;;;5065645;28;24406;-58
2022/02/15 21:29:59;;;;;;;7.10;6.20;;;;;;;;;;5065017;28;24449;-58
2022/02/15 21:32:25;;;;;;;8.07;6.60;;;;;;;;;;5064581;28;24422;-58
2022/02/15 21:34:50;;;;;;;7.15;6.15;;;;;;;;;;5063490;28;24433;-58
2022/02/15 21:37:15;;;;;;;6.00;5.40;;;;;;;;;;5066080;28;24527;-58
2022/02/15 21:39:41;;;;;;;5.53;4.90;;;;;;;;;;5064004;28;24437;-58
2022/02/15 21:42:06;;;;;;;6.00;5.03;;;;;;;;;;5065975;28;24426;-57
2022/02/15 21:44:31;;;;;;;5.07;4.57;;;;;;;;;;5065143;28;24423;-57
2022/02/15 21:46:56;;;;;;;4.60;4.20;;;;;;;;;;5065503;28;24507;-57
2022/02/15 21:49:21;;;;;;;4.40;4.00;;;;;;;;;;5066327;28;24414;-57
2022/02/15 21:51:47;;;;;;;3.97;3.67;;;;;;;;;;5065626;28;24423;-57
2022/02/15 21:54:12;;;;;;;3.63;3.30;;;;;;;;;;5064634;28;24407;-57
2022/02/15 21:56:37;;;;;;;3.50;3.20;;;;;;;;;;5062615;28;24406;-58
2022/02/15 21:59:03;;;;;;;3.90;3.60;;;;;;;;;;5059026;28;24417;-58
2022/02/15 22:01:28;;;;;;;3.60;3.30;;;;;;;;;;5065046;28;24773;-58
2022/02/15 22:03:54;;;;;;;3.50;3.20;;;;;;;;;;5064327;28;24993;-57
2022/02/15 22:06:19;;;;;;;3.72;3.40;;;;;;;;;;5057172;28;24518;-58
2022/02/15 22:08:44;;;;;;;3.97;3.57;;;;;;;;;;5066161;28;24964;-58
2022/02/15 22:11:09;;;;;;;3.70;3.40;;;;;;;;;;5065956;28;24407;-58
2022/02/15 22:13:34;;;;;;;3.70;3.40;;;;;;;;;;5064937;28;24411;-58
2022/02/15 22:16:00;;;;;;;3.30;3.00;;;;;;;;;;5062287;28;24418;-57
2022/02/15 22:18:25;;;;;;;4.00;3.70;;;;;;;;;;5066015;28;24960;-58
2022/02/15 22:20:51;;;;;;;3.30;3.00;;;;;;;;;;5065607;28;24960;-59
2022/02/15 22:23:18;;;;;;;3.60;3.30;;;;;;;;;;5065342;28;24933;-59
2022/02/15 22:25:44;;;;;;;3.17;2.97;;;;;;;;;;5053261;28;24438;-58
2022/02/15 22:28:09;;;;;;;3.50;3.30;;;;;;;;;;5061741;28;24464;-59
2022/02/15 22:30:34;;;;;;;3.60;3.30;;;;;;;;;;5064134;28;24837;-57
2022/02/15 22:32:59;;;;;;;3.40;3.20;;;;;;;;;;5067717;28;25018;-58
2022/02/15 22:35:24;;;;;;;3.30;3.10;;;;;;;;;;5069014;28;24411;-58
2022/02/15 22:37:50;;;;;;;3.60;3.30;;;;;;;;;;5068178;28;24469;-58
2022/02/15 22:40:16;;;;;;;3.80;3.50;;;;;;;;;;5066518;28;24515;-57
2022/02/15 22:42:41;;;;;;;3.43;3.13;;;;;;;;;;5066861;28;24411;-56
2022/02/15 22:45:07;;;;;;;3.97;3.67;;;;;;;;;;5068681;28;24434;-57
2022/02/15 22:47:33;;;;;;;3.80;3.50;;;;;;;;;;5067865;28;24555;-57
2022/02/15 22:50:00;;;;;;;3.67;3.37;;;;;;;;;;5068913;28;24417;-58
2022/02/15 22:52:26;;;;;;;3.20;3.00;;;;;;;;;;5068644;28;25013;-57
2022/02/15 22:54:55;;;;;;;3.10;2.90;;;;;;;;;;5067929;28;24422;-58
2022/02/15 22:57:22;;;;;;;3.30;3.00;;;;;;;;;;5069553;28;24422;-59
2022/02/15 22:59:47;;;;;;;2.85;2.65;;;;;;;;;;5068604;28;24800;-58
2022/02/15 23:02:13;;;;;;;3.60;3.30;;;;;;;;;;5068164;28;24421;-57
2022/02/15 23:04:39;;;;;;;3.20;3.00;;;;;;;;;;5055351;28;24423;-57
2022/02/15 23:18:00;;;;;;;3.28;3.08;;;;;;;;;;5058017;28;24952;-58
2022/02/15 23:20:26;;;;;;;3.30;2.97;;;;;;;;;;5068860;28;24434;-58
2022/02/15 23:22:51;;;;;;;3.47;3.17;;;;;;;;;;5067546;28;24427;-58
2022/02/15 23:25:16;;;;;;;3.30;3.10;;;;;;;;;;5066951;28;24534;-58
2022/02/15 23:27:42;;;;;;;3.40;3.20;;;;;;;;;;5067010;28;24959;-57
2022/02/15 23:30:08;;;;;;;3.60;3.30;;;;;;;;;;5066240;28;25243;-57
2022/02/15 23:32:34;;;;;;;3.78;3.47;;;;;;;;;;5068211;28;24518;-57
2022/02/15 23:34:59;;;;;;;3.60;3.30;;;;;;;;;;5066362;28;24491;-56
2022/02/15 23:37:24;;;;;;;4.00;3.60;;;;;;;;;;5068059;28;24464;-56
2022/02/15 23:39:51;;;;;;;3.28;2.97;;;;;;;;;;5068098;28;24430;-57
2022/02/15 23:42:16;;;;;;;4.07;3.78;;;;;;;;;;5067297;28;24464;-56
2022/02/15 23:44:42;;;;;;;3.50;3.30;;;;;;;;;;5067120;28;24546;-56
2022/02/15 23:47:07;;;;;;;3.77;3.47;;;;;;;;;;5068008;28;24423;-56
2022/02/15 23:49:32;;;;;;;4.10;3.30;;;;;;;;;;5067111;28;24506;-57
2022/02/15 23:51:57;;;;;;;3.63;3.33;;;;;;;;;;5067719;28;24769;-56
2022/02/15 23:54:22;;;;;;;4.40;4.00;;;;;;;;;;5067503;28;24460;-56
2022/02/15 23:56:47;;;;;;;4.45;4.05;;;;;;;;;;5066167;28;24807;-56
2022/02/15 23:59:12;;;;;;;4.50;4.10;;;;;;;;;;5068187;28;24980;-56
